sensor_id;sensor_type;location;lat;lon;timestamp;pressure;altitude;pressure_sealevel;temperature;humidity
42433;BME280;28071;48.232;20.668;2023-04-28T00:04:34;100154.66;;;4.06;100.00
42433;BME280;28071;48.232;20.668;2023-04-28T00:09:34;100162.09;;;4.11;100.00
42433;BME280;28071;48.232;20.668;2023-04-28T00:14:35;100155.78;;;3.96;100.00
42433;BME280;28071;48.232;20.668;2023-04-28T00:19:35;100165.34;;;3.97;100.00
42433;BME280;28071;48.232;20.668;2023-04-28T00:24:37;100160.88;;;3.97;100.00
42433;BME280;28071;48.232;20.668;2023-04-28T00:29:38;100110.25;;;3.53;100.00
42433;BME280;28071;48.232;20.668;2023-04-28T00:34:38;100167.13;;;3.88;100.00
42433;BME280;28071;48.232;20.668;2023-04-28T00:39:38;100154.94;;;3.87;100.00
42433;BME280;28071;48.232;20.668;2023-04-28T00:44:40;100158.66;;;3.76;100.00
42433;BME280;28071;48.232;20.668;2023-04-28T00:49:41;100150.50;;;3.87;100.00
42433;BME280;28071;48.232;20.668;2023-04-28T00:54:41;100148.13;;;3.68;100.00
42433;BME280;28071;48.232;20.668;2023-04-28T00:59:42;100170.69;;;3.71;100.00
42433;BME280;28071;48.232;20.668;2023-04-28T01:04:44;100170.13;;;3.59;100.00
42433;BME280;28071;48.232;20.668;2023-04-28T01:09:45;100167.91;;;3.46;100.00
42433;BME280;28071;48.232;20.668;2023-04-28T01:14:48;100167.16;;;3.28;100.00
42433;BME280;28071;48.232;20.668;2023-04-28T01:19:49;100160.00;;;3.12;100.00
42433;BME280;28071;48.232;20.668;2023-04-28T01:24:49;100166.47;;;3.00;100.00
42433;BME280;28071;48.232;20.668;2023-04-28T01:29:50;100145.56;;;2.90;100.00
42433;BME280;28071;48.232;20.668;2023-04-28T01:34:50;100152.03;;;2.78;100.00
42433;BME280;28071;48.232;20.668;2023-04-28T01:39:51;100155.63;;;2.77;100.00
42433;BME280;28071;48.232;20.668;2023-04-28T01:44:51;100148.94;;;2.83;100.00
42433;BME280;28071;48.232;20.668;2023-04-28T01:49:52;100146.16;;;2.58;100.00
42433;BME280;28071;48.232;20.668;2023-04-28T01:54:53;100151.44;;;2.48;100.00
42433;BME280;28071;48.232;20.668;2023-04-28T01:59:54;100160.63;;;2.44;100.00
42433;BME280;28071;48.232;20.668;2023-04-28T02:04:54;100164.28;;;2.34;100.00
42433;BME280;28071;48.232;20.668;2023-04-28T02:09:57;100167.06;;;2.32;100.00
42433;BME280;28071;48.232;20.668;2023-04-28T02:14:57;100171.84;;;2.19;100.00
42433;BME280;28071;48.232;20.668;2023-04-28T02:19:58;100159.00;;;1.98;100.00
42433;BME280;28071;48.232;20.668;2023-04-28T02:24:58;100184.19;;;1.91;100.00
42433;BME280;28071;48.232;20.668;2023-04-28T02:29:59;100183.94;;;1.84;100.00
42433;BME280;28071;48.232;20.668;2023-04-28T02:34:59;100185.81;;;1.92;100.00
42433;BME280;28071;48.232;20.668;2023-04-28T02:40:00;100192.88;;;1.91;100.00
42433;BME280;28071;48.232;20.668;2023-04-28T02:45:00;100182.81;;;1.87;100.00
42433;BME280;28071;48.232;20.668;2023-04-28T02:50:01;100195.19;;;1.94;100.00
42433;BME280;28071;48.232;20.668;2023-04-28T02:55:01;100202.38;;;1.92;100.00
42433;BME280;28071;48.232;20.668;2023-04-28T03:00:03;100205.69;;;1.94;100.00
42433;BME280;28071;48.232;20.668;2023-04-28T03:05:04;100208.44;;;1.93;100.00
42433;BME280;28071;48.232;20.668;2023-04-28T03:10:06;100213.50;;;1.77;100.00
42433;BME280;28071;48.232;20.668;2023-04-28T03:15:06;100213.00;;;1.63;100.00
42433;BME280;28071;48.232;20.668;2023-04-28T03:20:08;100207.38;;;1.86;100.00
42433;BME280;28071;48.232;20.668;2023-04-28T03:25:09;100219.56;;;1.77;100.00
42433;BME280;28071;48.232;20.668;2023-04-28T03:30:10;100218.44;;;1.80;100.00
42433;BME280;28071;48.232;20.668;2023-04-28T03:35:10;100217.88;;;1.86;100.00
42433;BME280;28071;48.232;20.668;2023-04-28T03:40:11;100222.97;;;1.87;100.00
42433;BME280;28071;48.232;20.668;2023-04-28T03:45:11;100222.19;;;1.77;100.00
42433;BME280;28071;48.232;20.668;2023-04-28T03:50:12;100212.47;;;1.60;100.00
42433;BME280;28071;48.232;20.668;2023-04-28T03:55:12;100224.75;;;1.87;100.00
42433;BME280;28071;48.232;20.668;2023-04-28T04:00:13;100229.19;;;1.86;100.00
42433;BME280;28071;48.232;20.668;2023-04-28T04:05:13;100233.91;;;1.83;100.00
42433;BME280;28071;48.232;20.668;2023-04-28T04:10:14;100233.59;;;1.86;100.00
42433;BME280;28071;48.232;20.668;2023-04-28T04:15:15;100240.22;;;1.90;100.00
42433;BME280;28071;48.232;20.668;2023-04-28T04:20:15;100244.16;;;2.04;100.00
42433;BME280;28071;48.232;20.668;2023-04-28T04:25:15;100242.06;;;2.07;100.00
42433;BME280;28071;48.232;20.668;2023-04-28T04:30:16;100245.19;;;2.20;100.00
42433;BME280;28071;48.232;20.668;2023-04-28T04:35:16;100237.56;;;2.27;100.00
42433;BME280;28071;48.232;20.668;2023-04-28T04:40:17;100244.88;;;2.51;100.00
42433;BME280;28071;48.232;20.668;2023-04-28T04:45:17;100247.94;;;2.64;100.00
42433;BME280;28071;48.232;20.668;2023-04-28T04:50:18;100240.66;;;2.76;100.00
42433;BME280;28071;48.232;20.668;2023-04-28T04:55:19;100237.94;;;2.86;100.00
42433;BME280;28071;48.232;20.668;2023-04-28T05:00:19;100237.66;;;3.06;100.00
42433;BME280;28071;48.232;20.668;2023-04-28T05:05:20;100240.75;;;3.28;100.00
42433;BME280;28071;48.232;20.668;2023-04-28T05:10:20;100234.94;;;3.42;100.00
42433;BME280;28071;48.232;20.668;2023-04-28T05:15:21;100223.34;;;3.53;100.00
42433;BME280;28071;48.232;20.668;2023-04-28T05:20:22;100228.69;;;3.69;100.00
42433;BME280;28071;48.232;20.668;2023-04-28T05:25:23;100235.03;;;3.93;100.00
42433;BME280;28071;48.232;20.668;2023-04-28T05:30:23;100220.28;;;4.08;100.00
42433;BME280;28071;48.232;20.668;2023-04-28T05:35:24;100233.44;;;4.50;100.00
42433;BME280;28071;48.232;20.668;2023-04-28T05:40:25;100215.84;;;4.67;100.00
42433;BME280;28071;48.232;20.668;2023-04-28T05:45:26;100237.28;;;5.05;100.00
42433;BME280;28071;48.232;20.668;2023-04-28T05:50:27;100216.66;;;5.33;100.00
42433;BME280;28071;48.232;20.668;2023-04-28T05:55:27;100226.84;;;5.60;100.00
42433;BME280;28071;48.232;20.668;2023-04-28T06:00:28;100251.81;;;5.97;100.00
42433;BME280;28071;48.232;20.668;2023-04-28T06:05:28;100251.56;;;6.23;100.00
42433;BME280;28071;48.232;20.668;2023-04-28T06:10:29;100250.91;;;6.52;100.00
42433;BME280;28071;48.232;20.668;2023-04-28T06:15:30;100254.72;;;6.80;100.00
42433;BME280;28071;48.232;20.668;2023-04-28T06:20:30;100252.34;;;7.08;100.00
42433;BME280;28071;48.232;20.668;2023-04-28T06:25:30;100242.53;;;7.32;97.79
42433;BME280;28071;48.232;20.668;2023-04-28T06:30:31;100262.31;;;7.59;94.99
42433;BME280;28071;48.232;20.668;2023-04-28T06:35:32;100255.13;;;7.82;96.63
42433;BME280;28071;48.232;20.668;2023-04-28T06:40:35;100236.03;;;8.01;93.30
42433;BME280;28071;48.232;20.668;2023-04-28T06:45:36;100252.53;;;8.48;91.99
42433;BME280;28071;48.232;20.668;2023-04-28T06:50:36;100239.31;;;8.69;92.93
42433;BME280;28071;48.232;20.668;2023-04-28T06:55:37;100235.81;;;9.11;92.94
42433;BME280;28071;48.232;20.668;2023-04-28T07:00:37;100239.31;;;9.40;88.66
42433;BME280;28071;48.232;20.668;2023-04-28T07:05:38;100237.50;;;9.75;86.61
42433;BME280;28071;48.232;20.668;2023-04-28T07:10:38;100235.63;;;10.10;85.28
42433;BME280;28071;48.232;20.668;2023-04-28T07:15:38;100236.84;;;10.49;83.43
42433;BME280;28071;48.232;20.668;2023-04-28T07:20:39;100224.63;;;10.74;80.93
42433;BME280;28071;48.232;20.668;2023-04-28T07:25:40;100230.00;;;11.14;78.10
42433;BME280;28071;48.232;20.668;2023-04-28T07:30:40;100220.56;;;11.51;73.51
42433;BME280;28071;48.232;20.668;2023-04-28T07:35:40;100210.84;;;11.77;67.45
42433;BME280;28071;48.232;20.668;2023-04-28T07:40:42;100196.66;;;12.09;65.42
42433;BME280;28071;48.232;20.668;2023-04-28T07:45:43;100215.16;;;12.42;64.25
42433;BME280;28071;48.232;20.668;2023-04-28T07:50:44;100210.75;;;12.93;62.71
42433;BME280;28071;48.232;20.668;2023-04-28T07:55:45;100202.97;;;13.16;58.94
42433;BME280;28071;48.232;20.668;2023-04-28T08:00:46;100188.03;;;13.52;58.78
42433;BME280;28071;48.232;20.668;2023-04-28T08:05:46;100188.59;;;13.79;55.91
42433;BME280;28071;48.232;20.668;2023-04-28T08:10:47;100184.47;;;14.13;55.25
42433;BME280;28071;48.232;20.668;2023-04-28T08:15:49;100170.00;;;14.51;53.73
42433;BME280;28071;48.232;20.668;2023-04-28T08:20:50;100135.97;;;14.69;51.34
42433;BME280;28071;48.232;20.668;2023-04-28T08:25:51;100163.03;;;14.31;51.39
42433;BME280;28071;48.232;20.668;2023-04-28T08:30:51;100126.50;;;14.25;52.73
42433;BME280;28071;48.232;20.668;2023-04-28T08:35:54;100139.44;;;14.40;52.45
42433;BME280;28071;48.232;20.668;2023-04-28T08:40:55;100135.34;;;14.56;51.88
42433;BME280;28071;48.232;20.668;2023-04-28T08:45:56;100119.28;;;14.56;48.26
42433;BME280;28071;48.232;20.668;2023-04-28T08:50:58;100112.94;;;15.15;44.65
42433;BME280;28071;48.232;20.668;2023-04-28T08:56:03;100113.41;;;15.01;44.63
42433;BME280;28071;48.232;20.668;2023-04-28T09:01:05;100133.06;;;14.83;44.76
42433;BME280;28071;48.232;20.668;2023-04-28T09:06:06;100128.75;;;15.17;43.18
42433;BME280;28071;48.232;20.668;2023-04-28T09:11:08;100090.78;;;15.43;42.26
42433;BME280;28071;48.232;20.668;2023-04-28T09:16:08;100116.31;;;15.22;40.70
42433;BME280;28071;48.232;20.668;2023-04-28T09:21:09;100097.22;;;14.84;40.64
42433;BME280;28071;48.232;20.668;2023-04-28T09:26:09;100104.00;;;15.73;41.62
42433;BME280;28071;48.232;20.668;2023-04-28T09:31:23;100098.03;;;16.57;38.60
42433;BME280;28071;48.232;20.668;2023-04-28T09:36:28;100098.66;;;17.31;37.36
42433;BME280;28071;48.232;20.668;2023-04-28T09:41:42;100094.75;;;17.66;35.82
42433;BME280;28071;48.232;20.668;2023-04-28T09:46:45;100103.97;;;17.09;39.54
42433;BME280;28071;48.232;20.668;2023-04-28T09:51:45;100098.94;;;16.62;37.96
42433;BME280;28071;48.232;20.668;2023-04-28T09:56:46;100091.25;;;16.54;38.05
42433;BME280;28071;48.232;20.668;2023-04-28T10:01:47;100074.66;;;16.41;38.79
42433;BME280;28071;48.232;20.668;2023-04-28T10:06:48;100041.19;;;16.31;38.72
42433;BME280;28071;48.232;20.668;2023-04-28T10:11:49;100062.66;;;17.59;39.99
42433;BME280;28071;48.232;20.668;2023-04-28T10:16:50;100059.91;;;17.98;36.33
42433;BME280;28071;48.232;20.668;2023-04-28T10:27:33;100060.59;;;18.42;36.46
42433;BME280;28071;48.232;20.668;2023-04-28T10:32:34;100057.25;;;18.30;35.28
42433;BME280;28071;48.232;20.668;2023-04-28T10:38:07;100052.16;;;18.66;34.50
42433;BME280;28071;48.232;20.668;2023-04-28T10:43:08;100024.00;;;18.46;35.39
42433;BME280;28071;48.232;20.668;2023-04-28T10:48:09;100026.22;;;18.54;36.14
42433;BME280;28071;48.232;20.668;2023-04-28T10:53:09;100031.84;;;18.85;35.95
42433;BME280;28071;48.232;20.668;2023-04-28T11:03:41;100008.88;;;19.30;34.90
42433;BME280;28071;48.232;20.668;2023-04-28T11:19:23;99995.53;;;20.88;31.88
42433;BME280;28071;48.232;20.668;2023-04-28T11:24:25;99986.13;;;20.14;32.28
42433;BME280;28071;48.232;20.668;2023-04-28T11:29:39;99977.22;;;19.98;34.21
42433;BME280;28071;48.232;20.668;2023-04-28T11:34:40;99981.28;;;20.26;32.48
42433;BME280;28071;48.232;20.668;2023-04-28T11:39:41;99980.69;;;20.70;32.91
42433;BME280;28071;48.232;20.668;2023-04-28T11:44:49;99968.78;;;20.76;33.85
42433;BME280;28071;48.232;20.668;2023-04-28T11:49:51;99981.84;;;20.48;32.17
42433;BME280;28071;48.232;20.668;2023-04-28T11:54:56;99957.47;;;20.69;32.57
42433;BME280;28071;48.232;20.668;2023-04-28T12:00:12;99964.78;;;20.63;32.29
42433;BME280;28071;48.232;20.668;2023-04-28T12:05:13;99961.53;;;20.66;30.36
42433;BME280;28071;48.232;20.668;2023-04-28T12:10:14;99944.88;;;21.14;31.35
42433;BME280;28071;48.232;20.668;2023-04-28T12:15:15;99945.91;;;21.23;31.18
42433;BME280;28071;48.232;20.668;2023-04-28T12:25:44;99930.94;;;21.85;31.23
42433;BME280;28071;48.232;20.668;2023-04-28T12:30:45;99930.66;;;21.86;31.25
42433;BME280;28071;48.232;20.668;2023-04-28T12:35:46;99908.34;;;22.29;29.65
42433;BME280;28071;48.232;20.668;2023-04-28T12:40:48;99896.47;;;22.25;30.67
42433;BME280;28071;48.232;20.668;2023-04-28T12:45:52;99899.03;;;22.88;29.89
42433;BME280;28071;48.232;20.668;2023-04-28T12:50:54;99885.44;;;21.82;30.68
42433;BME280;28071;48.232;20.668;2023-04-28T12:55:54;99871.63;;;22.18;30.19
42433;BME280;28071;48.232;20.668;2023-04-28T13:00:55;99872.97;;;22.68;29.59
42433;BME280;28071;48.232;20.668;2023-04-28T13:05:56;99862.41;;;22.19;31.04
42433;BME280;28071;48.232;20.668;2023-04-28T13:10:56;99875.09;;;21.89;31.08
42433;BME280;28071;48.232;20.668;2023-04-28T13:15:57;99867.69;;;21.71;30.91
42433;BME280;28071;48.232;20.668;2023-04-28T13:20:58;99862.31;;;21.31;30.79
42433;BME280;28071;48.232;20.668;2023-04-28T13:25:58;99868.03;;;21.15;30.28
42433;BME280;28071;48.232;20.668;2023-04-28T13:30:59;99849.38;;;21.92;29.86
42433;BME280;28071;48.232;20.668;2023-04-28T13:35:59;99821.94;;;22.27;30.10
42433;BME280;28071;48.232;20.668;2023-04-28T13:41:00;99813.22;;;22.73;29.07
42433;BME280;28071;48.232;20.668;2023-04-28T13:46:00;99825.81;;;22.45;29.46
42433;BME280;28071;48.232;20.668;2023-04-28T13:51:06;99818.06;;;22.09;30.79
42433;BME280;28071;48.232;20.668;2023-04-28T13:56:07;99801.81;;;22.09;31.85
42433;BME280;28071;48.232;20.668;2023-04-28T14:01:08;99815.84;;;21.53;29.90
42433;BME280;28071;48.232;20.668;2023-04-28T14:06:08;99798.53;;;22.12;29.18
42433;BME280;28071;48.232;20.668;2023-04-28T14:11:09;99804.47;;;21.56;30.28
42433;BME280;28071;48.232;20.668;2023-04-28T14:16:10;99787.09;;;21.23;30.67
42433;BME280;28071;48.232;20.668;2023-04-28T14:21:11;99791.06;;;21.99;30.87
42433;BME280;28071;48.232;20.668;2023-04-28T14:26:11;99784.97;;;20.81;31.21
42433;BME280;28071;48.232;20.668;2023-04-28T14:31:12;99769.34;;;19.93;32.17
42433;BME280;28071;48.232;20.668;2023-04-28T14:36:12;99761.72;;;20.15;33.25
42433;BME280;28071;48.232;20.668;2023-04-28T14:41:13;99783.34;;;20.80;31.02
42433;BME280;28071;48.232;20.668;2023-04-28T14:46:13;99769.16;;;21.38;30.84
42433;BME280;28071;48.232;20.668;2023-04-28T14:51:16;99770.13;;;20.73;32.33
42433;BME280;28071;48.232;20.668;2023-04-28T14:56:17;99770.56;;;21.64;30.50
42433;BME280;28071;48.232;20.668;2023-04-28T15:01:19;99778.13;;;21.33;31.06
42433;BME280;28071;48.232;20.668;2023-04-28T15:06:20;99766.41;;;21.43;30.32
42433;BME280;28071;48.232;20.668;2023-04-28T15:11:21;99764.94;;;21.21;31.18
42433;BME280;28071;48.232;20.668;2023-04-28T15:16:21;99760.25;;;20.43;31.23
42433;BME280;28071;48.232;20.668;2023-04-28T15:21:22;99755.19;;;21.20;31.44
42433;BME280;28071;48.232;20.668;2023-04-28T15:26:23;99765.34;;;20.99;31.40
42433;BME280;28071;48.232;20.668;2023-04-28T15:31:23;99755.72;;;20.88;31.89
42433;BME280;28071;48.232;20.668;2023-04-28T15:36:24;99734.94;;;20.29;32.62
42433;BME280;28071;48.232;20.668;2023-04-28T15:41:25;99748.72;;;20.28;33.58
42433;BME280;28071;48.232;20.668;2023-04-28T15:46:29;99740.78;;;19.61;33.73
42433;BME280;28071;48.232;20.668;2023-04-28T15:51:30;99729.75;;;18.97;35.59
42433;BME280;28071;48.232;20.668;2023-04-28T15:56:30;99724.28;;;18.66;36.72
42433;BME280;28071;48.232;20.668;2023-04-28T16:01:31;99725.72;;;18.16;38.63
42433;BME280;28071;48.232;20.668;2023-04-28T16:06:31;99724.09;;;18.10;39.48
42433;BME280;28071;48.232;20.668;2023-04-28T16:11:31;99722.41;;;17.57;40.91
42433;BME280;28071;48.232;20.668;2023-04-28T16:16:32;99703.53;;;17.46;40.35
42433;BME280;28071;48.232;20.668;2023-04-28T16:21:33;99693.22;;;17.33;41.30
42433;BME280;28071;48.232;20.668;2023-04-28T16:26:33;99694.69;;;17.14;41.61
42433;BME280;28071;48.232;20.668;2023-04-28T16:31:34;99692.34;;;16.90;42.89
42433;BME280;28071;48.232;20.668;2023-04-28T16:36:35;99693.00;;;16.49;42.83
42433;BME280;28071;48.232;20.668;2023-04-28T16:41:35;99682.84;;;16.29;44.01
42433;BME280;28071;48.232;20.668;2023-04-28T16:46:36;99697.72;;;16.15;45.43
42433;BME280;28071;48.232;20.668;2023-04-28T16:51:38;99691.66;;;15.80;45.77
42433;BME280;28071;48.232;20.668;2023-04-28T16:56:38;99681.16;;;15.79;48.57
42433;BME280;28071;48.232;20.668;2023-04-28T17:01:39;99676.00;;;15.55;50.30
42433;BME280;28071;48.232;20.668;2023-04-28T17:06:39;99684.97;;;15.44;48.50
42433;BME280;28071;48.232;20.668;2023-04-28T17:11:40;99690.97;;;15.18;49.82
42433;BME280;28071;48.232;20.668;2023-04-28T17:16:40;99688.44;;;14.78;53.18
42433;BME280;28071;48.232;20.668;2023-04-28T17:21:42;99683.72;;;14.39;53.68
42433;BME280;28071;48.232;20.668;2023-04-28T17:26:44;99663.84;;;14.07;55.40
42433;BME280;28071;48.232;20.668;2023-04-28T17:31:45;99675.22;;;13.62;59.31
42433;BME280;28071;48.232;20.668;2023-04-28T17:36:45;99659.31;;;13.32;57.62
42433;BME280;28071;48.232;20.668;2023-04-28T17:41:46;99672.19;;;13.35;60.07
42433;BME280;28071;48.232;20.668;2023-04-28T17:46:46;99670.97;;;12.96;63.29
42433;BME280;28071;48.232;20.668;2023-04-28T17:51:47;99674.31;;;12.80;63.04
42433;BME280;28071;48.232;20.668;2023-04-28T17:56:47;99653.88;;;12.32;68.04
42433;BME280;28071;48.232;20.668;2023-04-28T18:01:48;99672.84;;;12.23;67.82
42433;BME280;28071;48.232;20.668;2023-04-28T18:06:48;99667.59;;;11.87;68.91
42433;BME280;28071;48.232;20.668;2023-04-28T18:11:49;99683.91;;;11.72;71.42
42433;BME280;28071;48.232;20.668;2023-04-28T18:16:49;99682.34;;;11.21;72.80
42433;BME280;28071;48.232;20.668;2023-04-28T18:21:50;99677.72;;;11.10;74.00
42433;BME280;28071;48.232;20.668;2023-04-28T18:26:50;99686.31;;;10.87;76.11
42433;BME280;28071;48.232;20.668;2023-04-28T18:31:51;99679.84;;;10.76;75.08
42433;BME280;28071;48.232;20.668;2023-04-28T18:36:52;99697.22;;;10.79;76.79
42433;BME280;28071;48.232;20.668;2023-04-28T18:41:52;99684.78;;;10.35;79.77
42433;BME280;28071;48.232;20.668;2023-04-28T18:46:52;99696.91;;;10.31;80.07
42433;BME280;28071;48.232;20.668;2023-04-28T18:51:53;99699.56;;;10.17;81.33
42433;BME280;28071;48.232;20.668;2023-04-28T18:56:53;99708.84;;;10.01;84.28
42433;BME280;28071;48.232;20.668;2023-04-28T19:01:54;99684.72;;;9.96;82.99
42433;BME280;28071;48.232;20.668;2023-04-28T19:06:54;99694.84;;;10.33;78.99
42433;BME280;28071;48.232;20.668;2023-04-28T19:11:55;99684.50;;;10.05;81.66
42433;BME280;28071;48.232;20.668;2023-04-28T19:16:55;99675.31;;;10.07;81.85
42433;BME280;28071;48.232;20.668;2023-04-28T19:21:56;99698.16;;;10.15;83.88
42433;BME280;28071;48.232;20.668;2023-04-28T19:26:56;99687.28;;;10.30;84.45
42433;BME280;28071;48.232;20.668;2023-04-28T19:32:00;99688.50;;;10.27;84.51
42433;BME280;28071;48.232;20.668;2023-04-28T19:37:00;99666.50;;;10.07;87.21
42433;BME280;28071;48.232;20.668;2023-04-28T19:42:01;99681.22;;;10.09;85.32
42433;BME280;28071;48.232;20.668;2023-04-28T19:47:03;99652.25;;;9.94;86.84
42433;BME280;28071;48.232;20.668;2023-04-28T19:52:03;99681.38;;;10.21;84.82
42433;BME280;28071;48.232;20.668;2023-04-28T19:57:04;99676.47;;;10.24;86.46
42433;BME280;28071;48.232;20.668;2023-04-28T20:02:05;99677.50;;;10.23;83.70
42433;BME280;28071;48.232;20.668;2023-04-28T20:07:07;99673.75;;;10.38;83.68
42433;BME280;28071;48.232;20.668;2023-04-28T20:12:08;99667.66;;;10.31;84.95
42433;BME280;28071;48.232;20.668;2023-04-28T20:17:09;99671.31;;;10.36;84.11
42433;BME280;28071;48.232;20.668;2023-04-28T20:22:09;99678.66;;;10.34;84.57
42433;BME280;28071;48.232;20.668;2023-04-28T20:27:10;99666.84;;;10.30;85.80
42433;BME280;28071;48.232;20.668;2023-04-28T20:32:11;99672.13;;;10.37;82.61
42433;BME280;28071;48.232;20.668;2023-04-28T20:37:11;99675.16;;;10.40;84.68
42433;BME280;28071;48.232;20.668;2023-04-28T20:42:13;99648.44;;;10.28;84.28
42433;BME280;28071;48.232;20.668;2023-04-28T20:47:13;99675.22;;;10.27;83.59
42433;BME280;28071;48.232;20.668;2023-04-28T20:52:13;99678.31;;;10.24;87.08
42433;BME280;28071;48.232;20.668;2023-04-28T20:57:14;99678.53;;;10.16;89.49
42433;BME280;28071;48.232;20.668;2023-04-28T21:02:14;99655.34;;;9.91;87.43
42433;BME280;28071;48.232;20.668;2023-04-28T21:07:15;99640.53;;;9.57;92.12
42433;BME280;28071;48.232;20.668;2023-04-28T21:12:16;99664.53;;;9.89;90.40
42433;BME280;28071;48.232;20.668;2023-04-28T21:17:16;99660.66;;;9.91;90.10
42433;BME280;28071;48.232;20.668;2023-04-28T21:22:17;99649.47;;;9.76;93.16
42433;BME280;28071;48.232;20.668;2023-04-28T21:27:17;99681.91;;;9.91;93.35
42433;BME280;28071;48.232;20.668;2023-04-28T21:32:18;99658.06;;;9.71;92.90
42433;BME280;28071;48.232;20.668;2023-04-28T21:37:18;99656.25;;;9.59;93.70
42433;BME280;28071;48.232;20.668;2023-04-28T21:42:18;99679.28;;;9.78;93.90
42433;BME280;28071;48.232;20.668;2023-04-28T21:47:19;99670.94;;;9.68;96.67
42433;BME280;28071;48.232;20.668;2023-04-28T21:52:20;99674.22;;;9.70;97.64
42433;BME280;28071;48.232;20.668;2023-04-28T21:57:20;99671.28;;;9.91;96.70
42433;BME280;28071;48.232;20.668;2023-04-28T22:02:21;99667.06;;;9.64;98.04
42433;BME280;28071;48.232;20.668;2023-04-28T22:07:22;99667.03;;;9.77;96.44
42433;BME280;28071;48.232;20.668;2023-04-28T22:12:24;99664.63;;;9.56;99.96
42433;BME280;28071;48.232;20.668;2023-04-28T22:17:25;99633.47;;;9.25;100.00
42433;BME280;28071;48.232;20.668;2023-04-28T22:22:26;99643.66;;;9.28;99.62
42433;BME280;28071;48.232;20.668;2023-04-28T22:27:27;99635.09;;;9.19;98.25
42433;BME280;28071;48.232;20.668;2023-04-28T22:32:27;99631.19;;;9.22;99.10
42433;BME280;28071;48.232;20.668;2023-04-28T22:37:28;99640.81;;;9.16;98.48
42433;BME280;28071;48.232;20.668;2023-04-28T22:42:28;99642.25;;;9.12;98.12
42433;BME280;28071;48.232;20.668;2023-04-28T22:47:29;99634.28;;;8.99;98.56
42433;BME280;28071;48.232;20.668;2023-04-28T22:52:30;99613.69;;;8.94;99.83
42433;BME280;28071;48.232;20.668;2023-04-28T22:57:30;99622.25;;;9.09;100.00
42433;BME280;28071;48.232;20.668;2023-04-28T23:02:31;99622.69;;;9.00;98.92
42433;BME280;28071;48.232;20.668;2023-04-28T23:07:31;99601.47;;;8.86;98.67
42433;BME280;28071;48.232;20.668;2023-04-28T23:12:32;99596.75;;;8.69;100.00
42433;BME280;28071;48.232;20.668;2023-04-28T23:17:32;99621.06;;;8.85;100.00
42433;BME280;28071;48.232;20.668;2023-04-28T23:22:33;99617.78;;;8.83;100.00
42433;BME280;28071;48.232;20.668;2023-04-28T23:27:33;99610.03;;;8.82;100.00
42433;BME280;28071;48.232;20.668;2023-04-28T23:32:34;99613.91;;;8.93;100.00
42433;BME280;28071;48.232;20.668;2023-04-28T23:37:34;99607.59;;;8.94;100.00
42433;BME280;28071;48.232;20.668;2023-04-28T23:42:35;99608.41;;;8.94;100.00
42433;BME280;28071;48.232;20.668;2023-04-28T23:47:35;99590.84;;;8.73;100.00
42433;BME280;28071;48.232;20.668;2023-04-28T23:52:36;99594.13;;;8.75;100.00
42433;BME280;28071;48.232;20.668;2023-04-28T23:57:39;99609.00;;;8.83;100.00
